Time;durP1;ratioP1;P1;durP2;ratioP2;P2;SDS_P1;SDS_P2;PMS_P1;PMS_P2;Temp;Humidity;BMP_temperature;BMP_pressure;BME280_temperature;BME280_humidity;BME280_pressure;Samples;Min_cycle;Max_cycle;Signal;HPM_P1;HPM_P2
2023/10/13 00:00:34;;;;;;;4.60;0.50;;;;;;;;;;5026063;28;20045;-40
2023/10/13 00:03:05;;;;;;;3.65;0.63;;;;;;;;;;5026196;28;20041;-42
2023/10/13 00:05:34;;;;;;;4.78;0.60;;;;;;;;;;5033620;28;20899;-40
2023/10/13 00:08:03;;;;;;;3.47;0.50;;;;;;;;;;5017743;28;20049;-41
2023/10/13 00:10:31;;;;;;;2.60;0.40;;;;;;;;;;5032420;28;20056;-40
2023/10/13 00:13:11;;;;;;;2.28;0.50;;;;;;;;;;5025690;28;20048;-39
2023/10/13 00:15:44;;;;;;;2.90;0.55;;;;;;;;;;5027003;28;20057;-40
2023/10/13 00:18:13;;;;;;;3.88;0.40;;;;;;;;;;5023362;28;20045;-39
2023/10/13 00:20:48;;;;;;;4.18;0.40;;;;;;;;;;5024383;28;20561;-39
2023/10/13 00:23:16;;;;;;;2.57;0.50;;;;;;;;;;5025251;28;20106;-40
2023/10/13 00:25:49;;;;;;;3.75;0.50;;;;;;;;;;5023992;28;20483;-41
2023/10/13 00:28:24;;;;;;;3.15;0.43;;;;;;;;;;5010581;28;20029;-42
2023/10/13 00:30:52;;;;;;;3.90;0.30;;;;;;;;;;5012134;28;20461;-39
2023/10/13 00:33:22;;;;;;;3.97;0.70;;;;;;;;;;5026425;28;20046;-40
2023/10/13 00:35:51;;;;;;;3.43;0.40;;;;;;;;;;5012491;28;20041;-42
2023/10/13 00:38:19;;;;;;;2.83;0.40;;;;;;;;;;5031524;28;20056;-40
2023/10/13 00:40:52;;;;;;;2.63;0.38;;;;;;;;;;5018515;28;20048;-40
2023/10/13 00:43:34;;;;;;;5.28;0.60;;;;;;;;;;5030026;28;20056;-39
2023/10/13 00:46:13;;;;;;;4.40;0.20;;;;;;;;;;5019442;28;20041;-40
2023/10/13 00:48:51;;;;;;;3.80;0.47;;;;;;;;;;5020730;28;20487;-39
2023/10/13 00:51:32;;;;;;;4.45;0.50;;;;;;;;;;5020354;28;20538;-40
2023/10/13 00:54:02;;;;;;;7.15;1.17;;;;;;;;;;5026286;28;20037;-40
2023/10/13 00:56:32;;;;;;;5.35;1.48;;;;;;;;;;5021227;28;20049;-40
2023/10/13 00:59:02;;;;;;;8.35;2.42;;;;;;;;;;5019940;28;20053;-39
2023/10/13 01:01:32;;;;;;;10.80;3.07;;;;;;;;;;5009629;28;20036;-40
2023/10/13 01:04:00;;;;;;;8.95;2.92;;;;;;;;;;5031049;28;20048;-39
2023/10/13 01:06:28;;;;;;;14.60;3.97;;;;;;;;;;5011393;28;20036;-39
2023/10/13 01:08:59;;;;;;;9.43;3.28;;;;;;;;;;5031035;28;20443;-40
2023/10/13 01:11:29;;;;;;;8.00;3.17;;;;;;;;;;5020309;28;20509;-40
2023/10/13 01:13:57;;;;;;;7.80;3.03;;;;;;;;;;5003006;28;20094;-39
2023/10/13 01:16:26;;;;;;;8.40;3.00;;;;;;;;;;5016149;28;20622;-40
2023/10/13 01:18:59;;;;;;;8.98;3.13;;;;;;;;;;5032005;28;20693;-41
2023/10/13 01:21:29;;;;;;;10.32;3.25;;;;;;;;;;5018175;28;20032;-39
2023/10/13 01:23:59;;;;;;;15.38;3.72;;;;;;;;;;5020527;28;20525;-39
2023/10/13 01:26:27;;;;;;;10.17;3.83;;;;;;;;;;5036006;28;20040;-39
2023/10/13 01:28:57;;;;;;;9.40;3.45;;;;;;;;;;5014396;28;20470;-40
2023/10/13 01:31:30;;;;;;;10.00;3.85;;;;;;;;;;5019561;28;20041;-39
2023/10/13 01:33:58;;;;;;;16.33;4.25;;;;;;;;;;5026727;28;20514;-40
2023/10/13 01:36:27;;;;;;;13.55;4.15;;;;;;;;;;5017738;28;20373;-39
2023/10/13 01:38:55;;;;;;;10.97;3.90;;;;;;;;;;5017965;28;20043;-42
2023/10/13 01:41:24;;;;;;;16.33;5.15;;;;;;;;;;5026264;28;20048;-39
2023/10/13 01:43:51;;;;;;;9.18;4.00;;;;;;;;;;5012125;28;20043;-39
2023/10/13 01:46:21;;;;;;;14.93;4.85;;;;;;;;;;5031166;28;20029;-40
2023/10/13 01:48:48;;;;;;;15.18;4.88;;;;;;;;;;5005311;28;20056;-39
2023/10/13 01:51:23;;;;;;;17.80;6.33;;;;;;;;;;5013045;28;20384;-39
2023/10/13 01:53:56;;;;;;;17.13;5.47;;;;;;;;;;5030648;28;20044;-39
2023/10/13 01:56:31;;;;;;;14.32;5.22;;;;;;;;;;5030622;28;20056;-39
2023/10/13 01:58:58;;;;;;;14.35;5.10;;;;;;;;;;5015849;28;20431;-39
2023/10/13 02:01:34;;;;;;;18.13;5.88;;;;;;;;;;5030250;28;20067;-41
2023/10/13 02:04:03;;;;;;;15.00;5.20;;;;;;;;;;4996098;28;20049;-41
2023/10/13 02:06:36;;;;;;;13.48;4.78;;;;;;;;;;5031546;28;20040;-41
2023/10/13 02:09:10;;;;;;;13.10;5.47;;;;;;;;;;5025884;28;20127;-39
2023/10/13 02:11:41;;;;;;;14.65;5.40;;;;;;;;;;5018072;28;20041;-39
2023/10/13 02:14:11;;;;;;;15.10;5.85;;;;;;;;;;5026050;28;20053;-40
2023/10/13 02:16:38;;;;;;;14.70;5.30;;;;;;;;;;5030739;28;20057;-39
2023/10/13 02:19:05;;;;;;;16.08;6.07;;;;;;;;;;5016869;28;20076;-39
2023/10/13 02:21:38;;;;;;;18.02;6.70;;;;;;;;;;5037935;28;20037;-42
2023/10/13 02:24:12;;;;;;;22.50;7.10;;;;;;;;;;5020241;28;20037;-40
2023/10/13 02:26:41;;;;;;;16.23;6.03;;;;;;;;;;5029822;28;20032;-39
2023/10/13 02:29:08;;;;;;;22.50;6.73;;;;;;;;;;5024981;28;20056;-42
2023/10/13 02:31:41;;;;;;;21.00;7.03;;;;;;;;;;5034430;28;20507;-40
2023/10/13 02:34:08;;;;;;;21.55;7.95;;;;;;;;;;5018217;28;20060;-41
2023/10/13 02:36:46;;;;;;;22.83;8.20;;;;;;;;;;5037097;28;20047;-39
2023/10/13 02:39:16;;;;;;;24.00;8.95;;;;;;;;;;5019374;28;20052;-40
2023/10/13 02:41:48;;;;;;;26.63;9.53;;;;;;;;;;5023443;28;20047;-41
2023/10/13 02:44:26;;;;;;;26.30;9.63;;;;;;;;;;5023789;28;20045;-40
2023/10/13 02:46:55;;;;;;;31.42;12.02;;;;;;;;;;5028114;28;20045;-40
2023/10/13 02:49:25;;;;;;;30.25;10.77;;;;;;;;;;5016653;28;20623;-40
2023/10/13 02:51:55;;;;;;;27.38;10.45;;;;;;;;;;5037891;28;20060;-39
2023/10/13 02:54:22;;;;;;;32.53;12.27;;;;;;;;;;5014234;28;20632;-41
2023/10/13 02:56:56;;;;;;;31.17;11.60;;;;;;;;;;5036217;28;20065;-42
2023/10/13 02:59:34;;;;;;;37.38;12.98;;;;;;;;;;5022685;28;20036;-40
2023/10/13 03:02:07;;;;;;;29.40;12.35;;;;;;;;;;5025605;28;20699;-41
2023/10/13 03:04:33;;;;;;;37.05;13.10;;;;;;;;;;5034299;28;20147;-40
2023/10/13 03:07:03;;;;;;;38.20;12.57;;;;;;;;;;5018349;28;20033;-40
2023/10/13 03:09:29;;;;;;;37.85;11.95;;;;;;;;;;5033516;28;20842;-40
2023/10/13 03:11:58;;;;;;;39.97;13.20;;;;;;;;;;5022041;28;20049;-41
2023/10/13 03:14:28;;;;;;;37.83;13.35;;;;;;;;;;5024038;28;20033;-40
2023/10/13 03:17:02;;;;;;;39.05;13.73;;;;;;;;;;5023615;28;20053;-39
2023/10/13 03:19:34;;;;;;;32.57;12.90;;;;;;;;;;5035656;28;20036;-40
2023/10/13 03:22:09;;;;;;;40.25;12.77;;;;;;;;;;5026376;28;20744;-44
2023/10/13 03:24:41;;;;;;;32.63;11.82;;;;;;;;;;5027262;28;20410;-39
2023/10/13 03:27:11;;;;;;;28.60;11.40;;;;;;;;;;5038073;28;20041;-40
2023/10/13 03:29:42;;;;;;;31.90;11.75;;;;;;;;;;5017850;28;20596;-42
2023/10/13 03:32:12;;;;;;;29.80;12.30;;;;;;;;;;5035171;28;20041;-40
2023/10/13 03:34:53;;;;;;;37.88;11.55;;;;;;;;;;5019516;28;20053;-40
2023/10/13 03:37:37;;;;;;;31.88;10.43;;;;;;;;;;5018990;28;20419;-40
2023/10/13 03:40:07;;;;;;;29.88;10.95;;;;;;;;;;5029638;28;20033;-41
2023/10/13 03:42:39;;;;;;;25.92;10.75;;;;;;;;;;5029805;28;20053;-40
2023/10/13 03:45:10;;;;;;;29.10;10.43;;;;;;;;;;5027226;28;20041;-40
2023/10/13 03:47:38;;;;;;;28.58;11.23;;;;;;;;;;5026177;28;20118;-40
2023/10/13 03:50:15;;;;;;;29.50;10.43;;;;;;;;;;5027936;28;20116;-41
2023/10/13 03:52:44;;;;;;;23.00;7.80;;;;;;;;;;5037345;28;20047;-41
2023/10/13 03:55:17;;;;;;;23.05;9.23;;;;;;;;;;5008404;28;20041;-39
2023/10/13 03:57:50;;;;;;;22.27;8.57;;;;;;;;;;5030787;28;20037;-43
2023/10/13 04:00:24;;;;;;;29.02;9.65;;;;;;;;;;5032459;28;20051;-40
2023/10/13 04:03:06;;;;;;;22.25;6.97;;;;;;;;;;5026454;28;20094;-42
2023/10/13 04:05:40;;;;;;;26.83;8.95;;;;;;;;;;5027549;28;20065;-42
2023/10/13 04:16:52;;;;;;;29.00;8.20;;;;;;;;;;5050852;28;20413;-42
2023/10/13 04:19:29;;;;;;;23.65;8.15;;;;;;;;;;5028765;28;20037;-47
2023/10/13 04:21:58;;;;;;;29.20;10.00;;;;;;;;;;5025977;28;20583;-42
2023/10/13 04:27:39;;;;;;;29.08;9.00;;;;;;;;;;5037975;28;20045;-40
2023/10/13 04:30:19;;;;;;;26.58;8.60;;;;;;;;;;5031757;28;20066;-41
2023/10/13 04:33:05;;;;;;;30.45;9.88;;;;;;;;;;5014579;28;20714;-40
2023/10/13 04:35:47;;;;;;;25.88;8.00;;;;;;;;;;5041233;28;20480;-42
2023/10/13 04:38:20;;;;;;;19.87;7.80;;;;;;;;;;5023379;28;20041;-41
2023/10/13 04:41:01;;;;;;;31.33;10.00;;;;;;;;;;5021396;28;21725;-44
2023/10/13 04:43:55;;;;;;;22.55;7.50;;;;;;;;;;5031848;28;20040;-40
2023/10/13 04:46:35;;;;;;;33.60;8.45;;;;;;;;;;5020798;28;20115;-42
2023/10/13 04:49:09;;;;;;;30.77;9.90;;;;;;;;;;5018265;28;20036;-40
2023/10/13 04:51:59;;;;;;;27.67;8.03;;;;;;;;;;5022684;28;20040;-43
2023/10/13 04:54:26;;;;;;;35.03;8.23;;;;;;;;;;5004737;28;20495;-42
2023/10/13 04:57:20;;;;;;;21.90;5.38;;;;;;;;;;5024152;28;20052;-41
2023/10/13 05:05:44;;;;;;;26.93;7.93;;;;;;;;;;5019629;28;20037;-41
2023/10/13 05:50:05;;;;;;;19.83;5.63;;;;;;;;;;5013406;28;20499;-40
2023/10/13 06:28:45;;;;;;;27.90;6.53;;;;;;;;;;5026728;28;20033;-41
2023/10/13 06:31:21;;;;;;;33.22;6.63;;;;;;;;;;5028783;28;20068;-40
2023/10/13 06:33:50;;;;;;;22.15;5.15;;;;;;;;;;5017386;28;20045;-43
2023/10/13 06:36:18;;;;;;;17.23;5.28;;;;;;;;;;5034332;28;20052;-40
2023/10/13 06:38:54;;;;;;;26.85;5.50;;;;;;;;;;5026269;28;20048;-41
2023/10/13 06:41:31;;;;;;;19.80;4.40;;;;;;;;;;5029485;28;20094;-40
2023/10/13 06:44:05;;;;;;;28.92;4.82;;;;;;;;;;5027583;28;20119;-41
2023/10/13 06:46:33;;;;;;;25.95;5.47;;;;;;;;;;5030891;28;20043;-41
2023/10/13 06:49:02;;;;;;;24.27;5.70;;;;;;;;;;5005145;28;20083;-40
2023/10/13 06:51:37;;;;;;;17.02;4.75;;;;;;;;;;5034387;28;20565;-40
2023/10/13 06:54:11;;;;;;;20.53;6.13;;;;;;;;;;5006726;28;20037;-41
2023/10/13 06:56:40;;;;;;;22.27;5.68;;;;;;;;;;5033383;28;20053;-41
2023/10/13 06:59:08;;;;;;;26.55;4.72;;;;;;;;;;5013983;28;20049;-40
2023/10/13 07:01:40;;;;;;;22.52;5.15;;;;;;;;;;5030179;28;20049;-42
2023/10/13 07:04:13;;;;;;;15.75;4.47;;;;;;;;;;5009346;28;20115;-40
2023/10/13 07:06:48;;;;;;;23.50;5.22;;;;;;;;;;5038729;28;20029;-40
2023/10/13 07:09:39;;;;;;;21.63;5.67;;;;;;;;;;4991733;28;20116;-40
2023/10/13 07:12:16;;;;;;;16.92;4.53;;;;;;;;;;4993631;28;20045;-41
2023/10/13 07:14:51;;;;;;;16.23;3.90;;;;;;;;;;5006819;28;20123;-41
2023/10/13 07:17:39;;;;;;;17.13;3.78;;;;;;;;;;5009838;28;20056;-42
2023/10/13 07:20:15;;;;;;;15.50;3.97;;;;;;;;;;5013943;28;20114;-41
2023/10/13 07:22:54;;;;;;;19.37;4.33;;;;;;;;;;5018677;28;20037;-41
2023/10/13 07:25:25;;;;;;;20.13;4.72;;;;;;;;;;5018130;28;20051;-41
2023/10/13 07:27:56;;;;;;;12.73;3.60;;;;;;;;;;5021977;28;20041;-42
2023/10/13 07:30:27;;;;;;;10.25;2.90;;;;;;;;;;5014289;28;20370;-42
2023/10/13 07:32:59;;;;;;;31.60;4.80;;;;;;;;;;4965007;28;20368;-42
2023/10/13 07:35:30;;;;;;;16.47;4.07;;;;;;;;;;5009069;28;20045;-41
2023/10/13 07:38:00;;;;;;;16.33;4.25;;;;;;;;;;5027254;28;20049;-42
2023/10/13 07:40:40;;;;;;;19.95;3.58;;;;;;;;;;4997366;28;20503;-42
2023/10/13 07:43:10;;;;;;;16.03;3.40;;;;;;;;;;4304762;28;9999911;-41
2023/10/13 07:45:40;;;;;;;15.35;3.58;;;;;;;;;;5025420;28;20036;-41
2023/10/13 07:48:20;;;;;;;17.65;4.03;;;;;;;;;;5017081;28;20090;-41
2023/10/13 07:51:03;;;;;;;15.47;3.57;;;;;;;;;;5023941;28;20037;-43
2023/10/13 07:53:35;;;;;;;19.98;5.03;;;;;;;;;;5008881;28;20051;-45
2023/10/13 07:56:05;;;;;;;14.50;3.60;;;;;;;;;;5017392;28;20587;-43
2023/10/13 07:58:36;;;;;;;16.08;3.53;;;;;;;;;;5011872;28;20041;-41
2023/10/13 08:01:16;;;;;;;15.98;3.80;;;;;;;;;;5016771;28;20086;-41
2023/10/13 08:03:45;;;;;;;18.30;4.10;;;;;;;;;;5009426;28;20051;-43
2023/10/13 08:06:21;;;;;;;19.90;4.10;;;;;;;;;;5018837;28;20037;-42
2023/10/13 08:08:54;;;;;;;14.90;3.50;;;;;;;;;;4317092;28;10000170;-42
2023/10/13 08:11:34;;;;;;;12.57;3.05;;;;;;;;;;4993645;28;20525;-43
2023/10/13 08:14:22;;;;;;;12.90;3.55;;;;;;;;;;4993979;28;20070;-43
2023/10/13 08:17:07;;;;;;;19.52;4.32;;;;;;;;;;4992470;28;20052;-42
2023/10/13 08:19:45;;;;;;;17.58;3.70;;;;;;;;;;5000028;28;20037;-41
2023/10/13 08:22:35;;;;;;;17.47;4.53;;;;;;;;;;5011626;28;20040;-41
2023/10/13 08:25:33;;;;;;;17.60;4.13;;;;;;;;;;5003771;28;20049;-43
2023/10/13 08:28:46;;;;;;;13.43;3.50;;;;;;;;;;4990034;28;20055;-41
2023/10/13 08:31:24;;;;;;;15.25;3.15;;;;;;;;;;4993376;28;20382;-41
2023/10/13 08:33:59;;;;;;;16.10;4.13;;;;;;;;;;5013797;28;20060;-42
2023/10/13 08:36:29;;;;;;;18.13;4.33;;;;;;;;;;5002981;28;20056;-42
2023/10/13 08:38:58;;;;;;;15.82;4.10;;;;;;;;;;5002441;28;20501;-43
2023/10/13 08:41:31;;;;;;;20.65;3.83;;;;;;;;;;5010270;28;20282;-41
2023/10/13 08:44:03;;;;;;;14.15;4.22;;;;;;;;;;4995460;28;20040;-42
2023/10/13 08:46:51;;;;;;;14.30;2.97;;;;;;;;;;5014098;28;20048;-41
2023/10/13 08:49:23;;;;;;;16.03;3.57;;;;;;;;;;5007058;28;20044;-41
2023/10/13 08:52:06;;;;;;;16.15;3.85;;;;;;;;;;5005520;28;20045;-42
2023/10/13 08:54:39;;;;;;;17.70;4.07;;;;;;;;;;5006556;28;20166;-41
2023/10/13 08:57:32;;;;;;;18.65;3.58;;;;;;;;;;5007330;28;20044;-43
2023/10/13 09:05:41;;;;;;;17.88;3.70;;;;;;;;;;4984763;28;20048;-41
2023/10/13 09:08:15;;;;;;;16.30;3.95;;;;;;;;;;5016871;28;20072;-40
2023/10/13 09:10:59;;;;;;;18.98;4.90;;;;;;;;;;4984352;28;20044;-41
2023/10/13 09:13:43;;;;;;;15.88;4.60;;;;;;;;;;5015742;28;20059;-40
2023/10/13 09:16:22;;;;;;;13.67;3.77;;;;;;;;;;5015352;28;20056;-41
2023/10/13 09:18:52;;;;;;;17.95;4.30;;;;;;;;;;4998708;28;21013;-41
2023/10/13 09:26:55;;;;;;;16.58;4.35;;;;;;;;;;5012539;28;20072;-41
2023/10/13 09:29:24;;;;;;;17.77;4.53;;;;;;;;;;4989452;28;20037;-41
2023/10/13 09:32:03;;;;;;;16.77;4.18;;;;;;;;;;5010538;28;20322;-43
2023/10/13 09:34:40;;;;;;;14.25;3.40;;;;;;;;;;5006706;28;20055;-41
2023/10/13 09:37:20;;;;;;;16.50;3.83;;;;;;;;;;5022830;28;20105;-41
2023/10/13 09:39:52;;;;;;;13.00;3.15;;;;;;;;;;5014493;28;20037;-41
2023/10/13 09:42:23;;;;;;;12.97;3.83;;;;;;;;;;4992725;28;20978;-41
2023/10/13 09:44:51;;;;;;;17.85;4.47;;;;;;;;;;5012917;28;20037;-41
2023/10/13 09:47:24;;;;;;;18.40;4.10;;;;;;;;;;4987078;28;20128;-41
2023/10/13 09:50:03;;;;;;;15.88;4.28;;;;;;;;;;5013427;28;20040;-43
2023/10/13 09:52:31;;;;;;;15.70;3.75;;;;;;;;;;5003664;28;20110;-41
2023/10/13 09:55:18;;;;;;;10.47;3.00;;;;;;;;;;5015802;28;20046;-41
2023/10/13 09:58:10;;;;;;;16.60;4.00;;;;;;;;;;5009663;28;20186;-41
2023/10/13 10:00:46;;;;;;;13.38;3.78;;;;;;;;;;5015701;28;20817;-41
2023/10/13 10:03:39;;;;;;;19.83;3.58;;;;;;;;;;5007348;28;20123;-41
2023/10/13 10:06:14;;;;;;;14.60;3.42;;;;;;;;;;4984721;28;20039;-41
2023/10/13 10:08:50;;;;;;;12.50;3.20;;;;;;;;;;4654703;28;10000172;-41
2023/10/13 10:11:40;;;;;;;14.80;2.88;;;;;;;;;;5005547;28;20048;-41
2023/10/13 10:14:12;;;;;;;15.77;3.40;;;;;;;;;;5003380;28;20044;-41
2023/10/13 10:16:46;;;;;;;15.67;2.63;;;;;;;;;;4990532;28;20534;-42
2023/10/13 10:19:15;;;;;;;12.98;3.03;;;;;;;;;;4994930;28;20049;-42
2023/10/13 10:21:45;;;;;;;12.43;2.60;;;;;;;;;;5011676;28;20044;-44
2023/10/13 10:24:23;;;;;;;10.13;3.13;;;;;;;;;;5001526;28;20056;-41
2023/10/13 10:26:52;;;;;;;10.55;2.55;;;;;;;;;;5013649;28;20378;-43
2023/10/13 10:29:20;;;;;;;12.83;2.60;;;;;;;;;;5006133;28;20871;-40
2023/10/13 10:31:48;;;;;;;15.23;2.50;;;;;;;;;;5010460;28;20056;-40
2023/10/13 10:34:18;;;;;;;9.10;1.98;;;;;;;;;;4999830;28;20997;-40
2023/10/13 10:36:51;;;;;;;17.63;3.20;;;;;;;;;;5011516;28;20546;-42
2023/10/13 10:39:44;;;;;;;17.27;3.15;;;;;;;;;;4997402;28;20538;-43
2023/10/13 10:42:17;;;;;;;12.47;3.27;;;;;;;;;;4991203;28;20033;-43
2023/10/13 10:44:47;;;;;;;12.63;2.60;;;;;;;;;;5005491;28;20612;-40
2023/10/13 10:47:19;;;;;;;10.80;2.25;;;;;;;;;;4996752;28;20431;-40
2023/10/13 10:49:48;;;;;;;8.55;1.83;;;;;;;;;;5017133;28;20049;-40
2023/10/13 10:52:21;;;;;;;9.90;2.20;;;;;;;;;;4984371;28;20124;-39
2023/10/13 10:55:00;;;;;;;9.93;2.40;;;;;;;;;;5015578;28;20041;-40
2023/10/13 10:57:29;;;;;;;11.55;2.30;;;;;;;;;;5025843;28;20047;-39
2023/10/13 11:00:14;;;;;;;10.80;2.28;;;;;;;;;;5010260;28;20668;-40
2023/10/13 11:02:42;;;;;;;12.02;2.53;;;;;;;;;;4996505;28;20640;-42
2023/10/13 11:05:10;;;;;;;11.02;2.30;;;;;;;;;;5004771;28;20041;-43
2023/10/13 11:07:49;;;;;;;7.93;1.87;;;;;;;;;;5005534;28;20043;-43
2023/10/13 11:10:26;;;;;;;11.88;1.80;;;;;;;;;;5008581;28;20032;-41
2023/10/13 11:12:55;;;;;;;10.25;2.40;;;;;;;;;;4969728;28;20051;-43
2023/10/13 11:15:33;;;;;;;9.57;2.67;;;;;;;;;;5003923;28;20057;-40
2023/10/13 11:18:05;;;;;;;9.57;2.40;;;;;;;;;;5004550;28;20079;-40
2023/10/13 11:20:43;;;;;;;12.00;2.73;;;;;;;;;;5005586;28;20123;-40
2023/10/13 11:23:13;;;;;;;10.93;1.70;;;;;;;;;;4996861;28;20468;-40
2023/10/13 11:25:44;;;;;;;8.20;1.58;;;;;;;;;;5026039;28;20570;-42
2023/10/13 11:28:17;;;;;;;11.80;1.50;;;;;;;;;;4979337;28;20036;-41
2023/10/13 11:30:49;;;;;;;14.52;2.72;;;;;;;;;;5012342;28;20041;-42
2023/10/13 11:33:23;;;;;;;8.97;1.93;;;;;;;;;;4998210;28;20066;-41
2023/10/13 11:35:58;;;;;;;9.73;2.00;;;;;;;;;;5011191;28;20051;-43
2023/10/13 11:38:27;;;;;;;11.27;2.10;;;;;;;;;;5001743;28;20040;-43
2023/10/13 11:41:11;;;;;;;10.55;2.17;;;;;;;;;;5027050;28;20037;-41
2023/10/13 11:44:12;;;;;;;11.88;1.88;;;;;;;;;;5025728;28;20055;-41
2023/10/13 11:49:40;;;;;;;12.02;2.42;;;;;;;;;;4979388;28;20551;-40
2023/10/13 11:54:55;;;;;;;14.25;2.05;;;;;;;;;;5003584;28;20068;-40
2023/10/13 11:57:24;;;;;;;13.15;2.00;;;;;;;;;;5014175;28;20411;-40
2023/10/13 11:59:56;;;;;;;12.17;3.00;;;;;;;;;;4996353;28;20127;-40
2023/10/13 12:05:13;;;;;;;15.02;1.92;;;;;;;;;;4991297;28;20119;-41
2023/10/13 12:07:48;;;;;;;10.35;2.28;;;;;;;;;;5008490;28;20055;-41
2023/10/13 12:10:32;;;;;;;15.95;3.38;;;;;;;;;;4990797;28;20055;-40
2023/10/13 12:13:05;;;;;;;13.13;2.43;;;;;;;;;;5005551;28;20079;-40
2023/10/13 12:15:48;;;;;;;15.90;2.90;;;;;;;;;;4981328;28;20041;-39
2023/10/13 12:18:16;;;;;;;13.07;2.47;;;;;;;;;;5017674;28;20063;-39
2023/10/13 12:20:46;;;;;;;15.20;2.80;;;;;;;;;;5009782;28;20496;-40
2023/10/13 12:23:20;;;;;;;16.83;2.83;;;;;;;;;;4979255;28;20118;-40
2023/10/13 12:26:00;;;;;;;12.70;2.37;;;;;;;;;;4658276;28;10000426;-40
2023/10/13 12:28:31;;;;;;;15.93;2.30;;;;;;;;;;5010566;28;20060;-41
2023/10/13 12:31:07;;;;;;;11.20;2.17;;;;;;;;;;4999234;28;20056;-40
2023/10/13 12:33:40;;;;;;;14.35;2.53;;;;;;;;;;5011705;28;20060;-39
2023/10/13 12:36:09;;;;;;;12.02;2.42;;;;;;;;;;4999251;28;20055;-40
2023/10/13 12:39:01;;;;;;;13.93;2.40;;;;;;;;;;4975128;28;20509;-39
2023/10/13 12:49:58;;;;;;;9.45;2.42;;;;;;;;;;5010533;28;20407;-40
2023/10/13 12:52:26;;;;;;;12.00;1.90;;;;;;;;;;5008358;28;20047;-40
2023/10/13 12:55:06;;;;;;;9.13;1.50;;;;;;;;;;5006189;28;20053;-40
2023/10/13 12:57:46;;;;;;;11.43;1.92;;;;;;;;;;5023047;28;20036;-40
2023/10/13 13:00:32;;;;;;;12.00;1.97;;;;;;;;;;4667480;28;10000745;-39
2023/10/13 13:03:11;;;;;;;7.25;1.40;;;;;;;;;;4987854;28;20102;-41
2023/10/13 13:05:44;;;;;;;8.52;2.10;;;;;;;;;;4993428;28;20174;-42
2023/10/13 13:08:21;;;;;;;12.52;2.15;;;;;;;;;;4990629;28;20404;-40
2023/10/13 13:10:49;;;;;;;11.55;1.80;;;;;;;;;;4997042;28;20138;-39
2023/10/13 13:13:24;;;;;;;13.30;2.13;;;;;;;;;;5015342;28;20051;-40
2023/10/13 13:15:52;;;;;;;9.07;2.35;;;;;;;;;;4979758;28;20060;-40
2023/10/13 13:18:20;;;;;;;7.60;2.00;;;;;;;;;;5018165;28;20041;-40
2023/10/13 13:20:53;;;;;;;11.13;2.30;;;;;;;;;;4996046;28;20051;-40
2023/10/13 13:23:25;;;;;;;10.07;2.30;;;;;;;;;;5000039;28;20037;-40
2023/10/13 13:25:53;;;;;;;10.73;1.80;;;;;;;;;;5008605;28;20536;-39
2023/10/13 13:28:24;;;;;;;11.02;2.10;;;;;;;;;;5008117;28;20060;-40
2023/10/13 13:30:54;;;;;;;10.30;1.90;;;;;;;;;;5008452;28;20048;-40
2023/10/13 13:33:25;;;;;;;9.10;2.55;;;;;;;;;;5002484;28;20482;-40
2023/10/13 13:35:59;;;;;;;9.70;2.08;;;;;;;;;;4994414;28;21303;-41
2023/10/13 13:38:31;;;;;;;9.93;1.93;;;;;;;;;;5011526;28;21153;-40
2023/10/13 13:41:01;;;;;;;7.70;1.30;;;;;;;;;;4997323;28;20113;-40
2023/10/13 13:43:50;;;;;;;10.18;1.35;;;;;;;;;;5006402;28;20036;-39
2023/10/13 13:46:19;;;;;;;7.28;1.10;;;;;;;;;;5021017;28;20521;-40
2023/10/13 13:48:49;;;;;;;6.13;1.15;;;;;;;;;;4987549;28;20498;-39
2023/10/13 13:51:19;;;;;;;5.53;1.10;;;;;;;;;;5001039;28;20694;-42
2023/10/13 13:53:47;;;;;;;7.30;1.05;;;;;;;;;;5020205;28;20123;-41
2023/10/13 13:56:18;;;;;;;7.07;1.10;;;;;;;;;;4973090;28;20059;-41
2023/10/13 13:58:48;;;;;;;6.50;1.70;;;;;;;;;;5010969;28;20534;-40
2023/10/13 14:01:18;;;;;;;8.32;1.23;;;;;;;;;;5010512;28;20056;-40
2023/10/13 14:03:46;;;;;;;5.27;0.90;;;;;;;;;;5017905;28;20052;-40
2023/10/13 14:06:18;;;;;;;6.28;1.13;;;;;;;;;;5013377;28;20044;-39
2023/10/13 14:08:48;;;;;;;3.92;0.70;;;;;;;;;;5019718;28;20045;-39
2023/10/13 14:14:11;;;;;;;4.43;0.95;;;;;;;;;;4997411;28;20064;-40
2023/10/13 14:16:44;;;;;;;5.43;1.10;;;;;;;;;;5029205;28;20057;-42
2023/10/13 14:19:12;;;;;;;4.55;1.35;;;;;;;;;;5014009;28;20037;-40
2023/10/13 14:21:42;;;;;;;7.22;1.00;;;;;;;;;;5019785;28;20335;-40
2023/10/13 14:24:14;;;;;;;6.22;1.00;;;;;;;;;;5021002;28;20067;-43
2023/10/13 14:26:44;;;;;;;5.50;1.35;;;;;;;;;;5016963;28;20048;-40
2023/10/13 14:29:15;;;;;;;6.63;1.17;;;;;;;;;;5023755;28;20048;-42
2023/10/13 14:31:43;;;;;;;8.50;1.50;;;;;;;;;;5012826;28;20044;-41
2023/10/13 14:34:12;;;;;;;5.25;1.20;;;;;;;;;;5013024;28;20594;-43
2023/10/13 14:36:40;;;;;;;6.13;1.50;;;;;;;;;;5015782;28;20040;-40
2023/10/13 14:39:10;;;;;;;5.43;1.17;;;;;;;;;;4997841;28;20052;-40
2023/10/13 14:41:37;;;;;;;7.97;1.00;;;;;;;;;;5007321;28;20045;-40
2023/10/13 14:44:06;;;;;;;11.10;1.75;;;;;;;;;;5015717;28;20048;-40
2023/10/13 14:46:38;;;;;;;11.43;1.42;;;;;;;;;;4994205;28;20032;-41
2023/10/13 14:49:07;;;;;;;4.15;0.70;;;;;;;;;;5029785;28;20499;-39
2023/10/13 14:51:39;;;;;;;6.57;0.70;;;;;;;;;;5009272;28;20365;-40
2023/10/13 14:54:08;;;;;;;6.03;1.00;;;;;;;;;;5010429;28;20052;-42
2023/10/13 14:56:36;;;;;;;6.55;1.10;;;;;;;;;;5018726;28;20248;-40
2023/10/13 14:59:04;;;;;;;5.50;0.80;;;;;;;;;;5018725;28;20055;-40
2023/10/13 15:01:33;;;;;;;9.37;1.00;;;;;;;;;;4318004;28;10000457;-39
2023/10/13 15:04:02;;;;;;;6.13;0.70;;;;;;;;;;5016200;28;20048;-41
2023/10/13 15:06:34;;;;;;;6.03;0.85;;;;;;;;;;5013378;28;20048;-41
2023/10/13 15:09:03;;;;;;;4.53;0.50;;;;;;;;;;5016621;28;20041;-40
2023/10/13 15:11:36;;;;;;;3.65;0.70;;;;;;;;;;5011421;28;20131;-39
2023/10/13 15:14:16;;;;;;;5.13;0.70;;;;;;;;;;5014182;28;20049;-40
2023/10/13 15:16:43;;;;;;;5.65;0.88;;;;;;;;;;5024343;28;20052;-40
2023/10/13 15:19:13;;;;;;;4.32;0.63;;;;;;;;;;5011604;28;20055;-40
2023/10/13 15:21:43;;;;;;;6.32;0.70;;;;;;;;;;5016033;28;20047;-40
2023/10/13 15:24:14;;;;;;;5.70;0.93;;;;;;;;;;5019618;28;20048;-40
2023/10/13 15:26:47;;;;;;;3.87;0.80;;;;;;;;;;5007654;28;20150;-41
2023/10/13 15:29:16;;;;;;;4.78;0.98;;;;;;;;;;5024463;28;20044;-40
2023/10/13 15:31:54;;;;;;;3.97;0.70;;;;;;;;;;5012444;28;20045;-40
2023/10/13 15:34:23;;;;;;;3.47;0.55;;;;;;;;;;5014735;28;20067;-39
2023/10/13 15:36:54;;;;;;;6.45;0.60;;;;;;;;;;5014692;28;20048;-42
2023/10/13 15:39:24;;;;;;;6.77;0.53;;;;;;;;;;5014257;28;20597;-40
2023/10/13 15:41:53;;;;;;;4.88;0.55;;;;;;;;;;5005813;28;20048;-40
2023/10/13 15:44:24;;;;;;;5.47;0.70;;;;;;;;;;5011271;28;20091;-41
2023/10/13 15:46:53;;;;;;;7.38;0.75;;;;;;;;;;5016172;28;20047;-40
2023/10/13 15:49:27;;;;;;;7.72;0.70;;;;;;;;;;5013948;28;20078;-40
2023/10/13 15:51:57;;;;;;;6.03;0.90;;;;;;;;;;5020401;28;20454;-40
2023/10/13 15:54:24;;;;;;;5.82;0.68;;;;;;;;;;5010050;28;20196;-40
2023/10/13 15:56:54;;;;;;;6.07;0.70;;;;;;;;;;5016308;28;20117;-40
2023/10/13 15:59:22;;;;;;;4.82;0.50;;;;;;;;;;5016780;28;20124;-40
2023/10/13 16:01:56;;;;;;;8.85;0.90;;;;;;;;;;5021024;28;20099;-41
2023/10/13 16:04:26;;;;;;;4.23;0.40;;;;;;;;;;5024136;28;20040;-41
2023/10/13 16:06:54;;;;;;;3.83;0.30;;;;;;;;;;5019105;28;20036;-40
2023/10/13 16:09:23;;;;;;;2.38;0.47;;;;;;;;;;5023393;28;20137;-42
2023/10/13 16:11:53;;;;;;;5.30;0.38;;;;;;;;;;5025442;28;20036;-40
2023/10/13 16:14:21;;;;;;;2.67;0.30;;;;;;;;;;5027976;28;20506;-40
2023/10/13 16:16:55;;;;;;;2.70;0.40;;;;;;;;;;5033802;28;20151;-40
2023/10/13 16:19:23;;;;;;;2.10;0.30;;;;;;;;;;5021263;28;21162;-40
2023/10/13 16:21:53;;;;;;;3.33;0.20;;;;;;;;;;5024047;28;20127;-40
2023/10/13 16:24:22;;;;;;;2.30;0.30;;;;;;;;;;5030838;28;20522;-41
2023/10/13 16:26:52;;;;;;;2.85;0.40;;;;;;;;;;5015339;28;20052;-39
2023/10/13 16:29:21;;;;;;;3.43;0.53;;;;;;;;;;5022784;28;21105;-42
2023/10/13 16:31:49;;;;;;;3.17;0.75;;;;;;;;;;5020726;28;20333;-40
2023/10/13 16:34:17;;;;;;;3.45;0.57;;;;;;;;;;5019150;28;20558;-40
2023/10/13 16:36:46;;;;;;;6.72;0.43;;;;;;;;;;5029961;28;20044;-40
2023/10/13 16:39:15;;;;;;;3.75;0.50;;;;;;;;;;5020718;28;20049;-40
2023/10/13 16:41:46;;;;;;;3.73;0.40;;;;;;;;;;5024526;28;20049;-40
2023/10/13 16:44:15;;;;;;;3.05;0.50;;;;;;;;;;5036553;28;20120;-41
2023/10/13 16:46:43;;;;;;;3.58;0.30;;;;;;;;;;5018463;28;20083;-42
2023/10/13 16:49:11;;;;;;;7.95;0.60;;;;;;;;;;5016560;28;20114;-41
2023/10/13 16:51:40;;;;;;;3.08;0.50;;;;;;;;;;5021896;28;20994;-41
2023/10/13 16:54:09;;;;;;;2.83;0.53;;;;;;;;;;5012623;28;20364;-41
2023/10/13 16:56:39;;;;;;;4.15;0.40;;;;;;;;;;5009936;28;20044;-40
2023/10/13 16:59:07;;;;;;;3.75;0.55;;;;;;;;;;5021372;28;20045;-42
2023/10/13 17:01:35;;;;;;;2.58;0.40;;;;;;;;;;5015685;28;20618;-40
2023/10/13 17:04:04;;;;;;;4.15;0.77;;;;;;;;;;5028142;28;20526;-41
2023/10/13 17:06:32;;;;;;;5.03;0.57;;;;;;;;;;4671228;28;9999822;-39
2023/10/13 17:09:03;;;;;;;4.68;0.65;;;;;;;;;;5026652;28;20064;-39
2023/10/13 17:11:32;;;;;;;4.47;0.40;;;;;;;;;;5035191;28;20064;-40
2023/10/13 17:14:05;;;;;;;4.05;0.45;;;;;;;;;;5018103;28;20126;-40